sensor_id;sensor_type;location;lat;lon;timestamp;P1;durP1;ratioP1;P2;durP2;ratioP2
38787;SDS011;24536;45.488;12.238;2023-07-02T00:00:15;9.75;;;7.18;;
38787;SDS011;24536;45.488;12.238;2023-07-02T00:02:41;9.63;;;7.25;;
38787;SDS011;24536;45.488;12.238;2023-07-02T00:05:06;10.57;;;6.45;;
38787;SDS011;24536;45.488;12.238;2023-07-02T00:07:32;9.27;;;7.22;;
38787;SDS011;24536;45.488;12.238;2023-07-02T00:10:01;8.05;;;6.55;;
38787;SDS011;24536;45.488;12.238;2023-07-02T00:12:27;9.77;;;7.07;;
38787;SDS011;24536;45.488;12.238;2023-07-02T00:14:52;10.30;;;7.00;;
38787;SDS011;24536;45.488;12.238;2023-07-02T00:17:19;10.75;;;7.93;;
38787;SDS011;24536;45.488;12.238;2023-07-02T00:22:51;9.77;;;6.55;;
38787;SDS011;24536;45.488;12.238;2023-07-02T00:25:19;8.75;;;6.88;;
38787;SDS011;24536;45.488;12.238;2023-07-02T00:27:45;11.65;;;8.38;;
38787;SDS011;24536;45.488;12.238;2023-07-02T00:30:11;8.63;;;6.82;;
38787;SDS011;24536;45.488;12.238;2023-07-02T00:32:37;9.57;;;7.60;;
38787;SDS011;24536;45.488;12.238;2023-07-02T00:35:02;9.52;;;7.53;;
38787;SDS011;24536;45.488;12.238;2023-07-02T00:37:28;10.52;;;7.38;;
38787;SDS011;24536;45.488;12.238;2023-07-02T00:39:54;9.10;;;7.32;;
38787;SDS011;24536;45.488;12.238;2023-07-02T00:42:20;9.63;;;7.28;;
38787;SDS011;24536;45.488;12.238;2023-07-02T00:44:46;11.90;;;8.80;;
38787;SDS011;24536;45.488;12.238;2023-07-02T00:47:12;10.10;;;7.45;;
38787;SDS011;24536;45.488;12.238;2023-07-02T00:49:39;13.55;;;9.88;;
38787;SDS011;24536;45.488;12.238;2023-07-02T00:52:05;10.65;;;7.47;;
38787;SDS011;24536;45.488;12.238;2023-07-02T00:54:31;12.57;;;8.57;;
38787;SDS011;24536;45.488;12.238;2023-07-02T00:56:57;11.05;;;7.60;;
38787;SDS011;24536;45.488;12.238;2023-07-02T00:59:28;10.30;;;8.05;;
38787;SDS011;24536;45.488;12.238;2023-07-02T01:01:59;10.48;;;8.07;;
38787;SDS011;24536;45.488;12.238;2023-07-02T01:04:24;10.95;;;8.30;;
38787;SDS011;24536;45.488;12.238;2023-07-02T01:06:52;11.13;;;8.48;;
38787;SDS011;24536;45.488;12.238;2023-07-02T01:09:22;10.00;;;8.13;;
38787;SDS011;24536;45.488;12.238;2023-07-02T01:11:58;11.95;;;8.48;;
38787;SDS011;24536;45.488;12.238;2023-07-02T01:16:54;9.73;;;7.97;;
38787;SDS011;24536;45.488;12.238;2023-07-02T01:22:19;10.73;;;8.77;;
38787;SDS011;24536;45.488;12.238;2023-07-02T01:24:52;10.40;;;8.65;;
38787;SDS011;24536;45.488;12.238;2023-07-02T01:27:19;9.65;;;8.15;;
38787;SDS011;24536;45.488;12.238;2023-07-02T01:29:45;10.30;;;7.45;;
38787;SDS011;24536;45.488;12.238;2023-07-02T01:32:12;14.65;;;10.27;;
38787;SDS011;24536;45.488;12.238;2023-07-02T01:34:38;13.52;;;9.57;;
38787;SDS011;24536;45.488;12.238;2023-07-02T01:37:04;10.60;;;8.27;;
38787;SDS011;24536;45.488;12.238;2023-07-02T01:39:30;10.98;;;8.23;;
38787;SDS011;24536;45.488;12.238;2023-07-02T01:42:13;11.00;;;8.25;;
38787;SDS011;24536;45.488;12.238;2023-07-02T01:44:41;10.90;;;8.80;;
38787;SDS011;24536;45.488;12.238;2023-07-02T01:47:08;11.60;;;8.80;;
38787;SDS011;24536;45.488;12.238;2023-07-02T01:49:34;11.52;;;9.00;;
38787;SDS011;24536;45.488;12.238;2023-07-02T01:52:01;11.27;;;8.63;;
38787;SDS011;24536;45.488;12.238;2023-07-02T01:54:27;9.95;;;7.80;;
38787;SDS011;24536;45.488;12.238;2023-07-02T01:56:53;10.85;;;8.23;;
38787;SDS011;24536;45.488;12.238;2023-07-02T01:59:22;11.07;;;8.32;;
38787;SDS011;24536;45.488;12.238;2023-07-02T02:01:48;12.70;;;9.02;;
38787;SDS011;24536;45.488;12.238;2023-07-02T02:04:14;13.05;;;8.45;;
38787;SDS011;24536;45.488;12.238;2023-07-02T02:06:39;9.43;;;7.55;;
38787;SDS011;24536;45.488;12.238;2023-07-02T02:09:06;13.85;;;8.93;;
38787;SDS011;24536;45.488;12.238;2023-07-02T02:11:34;9.52;;;7.70;;
38787;SDS011;24536;45.488;12.238;2023-07-02T02:16:29;9.35;;;7.45;;
38787;SDS011;24536;45.488;12.238;2023-07-02T02:18:55;10.45;;;8.18;;
38787;SDS011;24536;45.488;12.238;2023-07-02T02:21:21;9.63;;;7.22;;
38787;SDS011;24536;45.488;12.238;2023-07-02T02:23:47;11.70;;;8.25;;
38787;SDS011;24536;45.488;12.238;2023-07-02T02:26:14;11.98;;;7.90;;
38787;SDS011;24536;45.488;12.238;2023-07-02T02:28:40;10.95;;;8.18;;
38787;SDS011;24536;45.488;12.238;2023-07-02T02:31:06;10.45;;;7.32;;
38787;SDS011;24536;45.488;12.238;2023-07-02T02:33:32;11.25;;;7.70;;
38787;SDS011;24536;45.488;12.238;2023-07-02T02:36:00;10.32;;;7.90;;
38787;SDS011;24536;45.488;12.238;2023-07-02T02:38:29;11.55;;;8.05;;
38787;SDS011;24536;45.488;12.238;2023-07-02T02:40:54;11.68;;;7.85;;
38787;SDS011;24536;45.488;12.238;2023-07-02T02:43:20;14.30;;;8.75;;
38787;SDS011;24536;45.488;12.238;2023-07-02T02:45:47;13.40;;;8.70;;
38787;SDS011;24536;45.488;12.238;2023-07-02T02:48:13;10.23;;;8.00;;
38787;SDS011;24536;45.488;12.238;2023-07-02T02:50:38;13.13;;;8.13;;
38787;SDS011;24536;45.488;12.238;2023-07-02T02:53:06;12.15;;;8.50;;
38787;SDS011;24536;45.488;12.238;2023-07-02T02:55:32;9.88;;;7.88;;
38787;SDS011;24536;45.488;12.238;2023-07-02T02:57:58;11.70;;;8.93;;
38787;SDS011;24536;45.488;12.238;2023-07-02T03:00:24;9.50;;;7.68;;
38787;SDS011;24536;45.488;12.238;2023-07-02T03:02:50;11.00;;;8.10;;
38787;SDS011;24536;45.488;12.238;2023-07-02T03:05:15;10.80;;;8.77;;
38787;SDS011;24536;45.488;12.238;2023-07-02T03:07:41;12.52;;;9.32;;
38787;SDS011;24536;45.488;12.238;2023-07-02T03:10:07;11.73;;;8.93;;
38787;SDS011;24536;45.488;12.238;2023-07-02T03:12:33;12.52;;;9.00;;
38787;SDS011;24536;45.488;12.238;2023-07-02T03:14:59;12.68;;;10.52;;
38787;SDS011;24536;45.488;12.238;2023-07-02T03:17:25;12.60;;;9.70;;
38787;SDS011;24536;45.488;12.238;2023-07-02T03:19:51;13.48;;;9.63;;
38787;SDS011;24536;45.488;12.238;2023-07-02T03:22:16;12.75;;;9.80;;
38787;SDS011;24536;45.488;12.238;2023-07-02T03:24:42;11.73;;;9.25;;
38787;SDS011;24536;45.488;12.238;2023-07-02T03:27:08;11.73;;;9.18;;
38787;SDS011;24536;45.488;12.238;2023-07-02T03:29:34;12.55;;;9.73;;
38787;SDS011;24536;45.488;12.238;2023-07-02T03:32:00;10.93;;;8.63;;
38787;SDS011;24536;45.488;12.238;2023-07-02T03:34:26;11.77;;;9.20;;
38787;SDS011;24536;45.488;12.238;2023-07-02T03:36:52;13.10;;;8.52;;
38787;SDS011;24536;45.488;12.238;2023-07-02T03:39:17;11.90;;;8.23;;
38787;SDS011;24536;45.488;12.238;2023-07-02T03:41:43;11.88;;;8.35;;
38787;SDS011;24536;45.488;12.238;2023-07-02T03:44:09;11.70;;;8.48;;
38787;SDS011;24536;45.488;12.238;2023-07-02T03:46:35;15.15;;;8.68;;
38787;SDS011;24536;45.488;12.238;2023-07-02T03:49:02;10.65;;;8.30;;
38787;SDS011;24536;45.488;12.238;2023-07-02T03:51:28;9.48;;;8.43;;
38787;SDS011;24536;45.488;12.238;2023-07-02T03:53:54;9.68;;;7.93;;
38787;SDS011;24536;45.488;12.238;2023-07-02T03:56:20;10.60;;;8.50;;
38787;SDS011;24536;45.488;12.238;2023-07-02T03:58:46;11.88;;;8.80;;
38787;SDS011;24536;45.488;12.238;2023-07-02T04:01:12;12.60;;;7.68;;
38787;SDS011;24536;45.488;12.238;2023-07-02T04:03:37;10.50;;;8.23;;
38787;SDS011;24536;45.488;12.238;2023-07-02T04:06:03;10.68;;;8.35;;
38787;SDS011;24536;45.488;12.238;2023-07-02T04:08:32;14.00;;;10.07;;
38787;SDS011;24536;45.488;12.238;2023-07-02T04:10:57;11.63;;;9.02;;
38787;SDS011;24536;45.488;12.238;2023-07-02T04:13:23;11.30;;;9.38;;
38787;SDS011;24536;45.488;12.238;2023-07-02T04:15:49;13.57;;;8.80;;
38787;SDS011;24536;45.488;12.238;2023-07-02T04:18:15;10.20;;;8.23;;
38787;SDS011;24536;45.488;12.238;2023-07-02T04:20:40;12.32;;;9.45;;
38787;SDS011;24536;45.488;12.238;2023-07-02T04:23:06;11.35;;;9.02;;
38787;SDS011;24536;45.488;12.238;2023-07-02T04:25:32;14.85;;;9.68;;
38787;SDS011;24536;45.488;12.238;2023-07-02T04:27:58;13.35;;;10.52;;
38787;SDS011;24536;45.488;12.238;2023-07-02T04:30:24;13.38;;;9.20;;
38787;SDS011;24536;45.488;12.238;2023-07-02T04:32:50;13.23;;;8.90;;
38787;SDS011;24536;45.488;12.238;2023-07-02T04:35:17;13.35;;;8.82;;
38787;SDS011;24536;45.488;12.238;2023-07-02T04:37:43;11.65;;;8.98;;
38787;SDS011;24536;45.488;12.238;2023-07-02T04:40:09;11.43;;;9.02;;
38787;SDS011;24536;45.488;12.238;2023-07-02T04:42:38;12.52;;;9.23;;
38787;SDS011;24536;45.488;12.238;2023-07-02T04:45:06;11.95;;;9.70;;
38787;SDS011;24536;45.488;12.238;2023-07-02T04:47:33;15.20;;;11.50;;
38787;SDS011;24536;45.488;12.238;2023-07-02T04:50:01;10.25;;;8.93;;
38787;SDS011;24536;45.488;12.238;2023-07-02T04:52:27;10.90;;;9.15;;
38787;SDS011;24536;45.488;12.238;2023-07-02T04:54:53;13.45;;;9.35;;
38787;SDS011;24536;45.488;12.238;2023-07-02T04:57:21;11.23;;;9.18;;
38787;SDS011;24536;45.488;12.238;2023-07-02T04:59:46;13.70;;;10.93;;
38787;SDS011;24536;45.488;12.238;2023-07-02T05:02:12;10.95;;;9.05;;
38787;SDS011;24536;45.488;12.238;2023-07-02T05:04:38;13.40;;;9.68;;
38787;SDS011;24536;45.488;12.238;2023-07-02T05:07:04;15.43;;;11.25;;
38787;SDS011;24536;45.488;12.238;2023-07-02T05:09:30;11.95;;;9.13;;
38787;SDS011;24536;45.488;12.238;2023-07-02T05:11:56;13.02;;;9.00;;
38787;SDS011;24536;45.488;12.238;2023-07-02T05:14:23;12.73;;;9.38;;
38787;SDS011;24536;45.488;12.238;2023-07-02T05:16:49;11.30;;;8.30;;
38787;SDS011;24536;45.488;12.238;2023-07-02T05:19:15;10.68;;;8.88;;
38787;SDS011;24536;45.488;12.238;2023-07-02T05:21:40;12.77;;;10.02;;
38787;SDS011;24536;45.488;12.238;2023-07-02T05:24:07;11.52;;;8.48;;
38787;SDS011;24536;45.488;12.238;2023-07-02T05:26:33;12.20;;;8.77;;
38787;SDS011;24536;45.488;12.238;2023-07-02T05:28:59;11.43;;;7.40;;
38787;SDS011;24536;45.488;12.238;2023-07-02T05:31:24;13.40;;;8.18;;
38787;SDS011;24536;45.488;12.238;2023-07-02T05:33:50;10.63;;;8.55;;
38787;SDS011;24536;45.488;12.238;2023-07-02T05:36:16;12.02;;;9.13;;
38787;SDS011;24536;45.488;12.238;2023-07-02T05:38:42;12.98;;;8.02;;
38787;SDS011;24536;45.488;12.238;2023-07-02T05:41:07;11.07;;;7.50;;
38787;SDS011;24536;45.488;12.238;2023-07-02T05:43:33;10.25;;;7.43;;
38787;SDS011;24536;45.488;12.238;2023-07-02T05:45:59;11.95;;;8.45;;
38787;SDS011;24536;45.488;12.238;2023-07-02T05:48:27;10.80;;;7.60;;
38787;SDS011;24536;45.488;12.238;2023-07-02T05:50:53;9.77;;;7.57;;
38787;SDS011;24536;45.488;12.238;2023-07-02T05:53:19;9.88;;;8.00;;
38787;SDS011;24536;45.488;12.238;2023-07-02T05:55:45;8.57;;;6.70;;
38787;SDS011;24536;45.488;12.238;2023-07-02T05:58:12;9.27;;;7.07;;
38787;SDS011;24536;45.488;12.238;2023-07-02T06:00:37;10.48;;;7.78;;
38787;SDS011;24536;45.488;12.238;2023-07-02T06:03:06;8.30;;;6.80;;
38787;SDS011;24536;45.488;12.238;2023-07-02T06:05:32;9.90;;;6.90;;
38787;SDS011;24536;45.488;12.238;2023-07-02T06:07:58;9.00;;;6.85;;
38787;SDS011;24536;45.488;12.238;2023-07-02T06:10:23;10.13;;;7.25;;
38787;SDS011;24536;45.488;12.238;2023-07-02T06:12:49;10.30;;;7.90;;
38787;SDS011;24536;45.488;12.238;2023-07-02T06:15:15;10.52;;;7.53;;
38787;SDS011;24536;45.488;12.238;2023-07-02T06:17:40;11.40;;;6.55;;
38787;SDS011;24536;45.488;12.238;2023-07-02T06:20:06;9.65;;;6.95;;
38787;SDS011;24536;45.488;12.238;2023-07-02T06:22:32;9.68;;;7.00;;
38787;SDS011;24536;45.488;12.238;2023-07-02T06:24:58;8.70;;;6.47;;
38787;SDS011;24536;45.488;12.238;2023-07-02T06:27:24;10.10;;;7.40;;
38787;SDS011;24536;45.488;12.238;2023-07-02T06:29:50;11.30;;;8.10;;
38787;SDS011;24536;45.488;12.238;2023-07-02T06:32:16;8.93;;;6.55;;
38787;SDS011;24536;45.488;12.238;2023-07-02T06:34:43;12.43;;;7.55;;
38787;SDS011;24536;45.488;12.238;2023-07-02T06:37:08;10.40;;;7.70;;
38787;SDS011;24536;45.488;12.238;2023-07-02T06:39:34;11.30;;;8.20;;
38787;SDS011;24536;45.488;12.238;2023-07-02T06:41:59;12.02;;;7.88;;
38787;SDS011;24536;45.488;12.238;2023-07-02T06:44:25;8.68;;;6.97;;
38787;SDS011;24536;45.488;12.238;2023-07-02T06:46:51;8.63;;;6.82;;
38787;SDS011;24536;45.488;12.238;2023-07-02T06:49:16;10.85;;;7.57;;
38787;SDS011;24536;45.488;12.238;2023-07-02T06:51:42;9.57;;;6.97;;
38787;SDS011;24536;45.488;12.238;2023-07-02T06:54:08;9.57;;;6.90;;
38787;SDS011;24536;45.488;12.238;2023-07-02T06:56:33;8.02;;;6.32;;
38787;SDS011;24536;45.488;12.238;2023-07-02T06:59:00;7.45;;;6.05;;
38787;SDS011;24536;45.488;12.238;2023-07-02T07:01:26;9.35;;;6.97;;
38787;SDS011;24536;45.488;12.238;2023-07-02T07:03:52;8.93;;;6.63;;
38787;SDS011;24536;45.488;12.238;2023-07-02T07:06:17;10.02;;;6.60;;
38787;SDS011;24536;45.488;12.238;2023-07-02T07:08:43;8.38;;;6.05;;
38787;SDS011;24536;45.488;12.238;2023-07-02T07:11:09;9.68;;;6.65;;
38787;SDS011;24536;45.488;12.238;2023-07-02T07:13:34;8.43;;;6.10;;
38787;SDS011;24536;45.488;12.238;2023-07-02T07:16:00;8.35;;;6.70;;
38787;SDS011;24536;45.488;12.238;2023-07-02T07:18:26;9.35;;;6.90;;
38787;SDS011;24536;45.488;12.238;2023-07-02T07:20:51;9.63;;;6.32;;
38787;SDS011;24536;45.488;12.238;2023-07-02T07:23:20;8.38;;;5.75;;
38787;SDS011;24536;45.488;12.238;2023-07-02T07:25:46;7.57;;;5.20;;
38787;SDS011;24536;45.488;12.238;2023-07-02T07:28:12;7.82;;;6.03;;
38787;SDS011;24536;45.488;12.238;2023-07-02T07:30:43;11.40;;;5.30;;
38787;SDS011;24536;45.488;12.238;2023-07-02T07:33:09;7.53;;;5.13;;
38787;SDS011;24536;45.488;12.238;2023-07-02T07:35:35;7.68;;;5.43;;
38787;SDS011;24536;45.488;12.238;2023-07-02T07:38:01;6.15;;;4.95;;
38787;SDS011;24536;45.488;12.238;2023-07-02T07:40:27;7.93;;;5.60;;
38787;SDS011;24536;45.488;12.238;2023-07-02T07:42:53;7.13;;;5.70;;
38787;SDS011;24536;45.488;12.238;2023-07-02T07:45:18;8.05;;;6.18;;
38787;SDS011;24536;45.488;12.238;2023-07-02T07:47:44;8.63;;;5.97;;
38787;SDS011;24536;45.488;12.238;2023-07-02T07:50:10;8.18;;;5.65;;
38787;SDS011;24536;45.488;12.238;2023-07-02T07:52:36;6.60;;;5.90;;
38787;SDS011;24536;45.488;12.238;2023-07-02T07:55:03;6.70;;;5.85;;
38787;SDS011;24536;45.488;12.238;2023-07-02T07:57:29;8.68;;;5.60;;
38787;SDS011;24536;45.488;12.238;2023-07-02T07:59:55;8.23;;;5.57;;
38787;SDS011;24536;45.488;12.238;2023-07-02T08:02:21;7.57;;;4.80;;
38787;SDS011;24536;45.488;12.238;2023-07-02T08:04:48;5.63;;;4.60;;
38787;SDS011;24536;45.488;12.238;2023-07-02T08:07:14;8.75;;;4.57;;
38787;SDS011;24536;45.488;12.238;2023-07-02T08:09:40;7.80;;;5.05;;
38787;SDS011;24536;45.488;12.238;2023-07-02T08:12:06;6.70;;;5.03;;
38787;SDS011;24536;45.488;12.238;2023-07-02T08:14:32;7.75;;;4.97;;
38787;SDS011;24536;45.488;12.238;2023-07-02T08:17:00;6.53;;;5.15;;
38787;SDS011;24536;45.488;12.238;2023-07-02T08:19:25;8.18;;;5.53;;
38787;SDS011;24536;45.488;12.238;2023-07-02T08:21:51;7.78;;;5.28;;
38787;SDS011;24536;45.488;12.238;2023-07-02T08:24:17;5.30;;;3.85;;
38787;SDS011;24536;45.488;12.238;2023-07-02T08:26:43;7.35;;;4.70;;
38787;SDS011;24536;45.488;12.238;2023-07-02T08:29:10;9.88;;;5.22;;
38787;SDS011;24536;45.488;12.238;2023-07-02T08:31:36;5.60;;;4.25;;
38787;SDS011;24536;45.488;12.238;2023-07-02T08:34:01;5.05;;;4.05;;
38787;SDS011;24536;45.488;12.238;2023-07-02T08:36:27;6.43;;;5.10;;
38787;SDS011;24536;45.488;12.238;2023-07-02T08:38:53;6.82;;;5.30;;
38787;SDS011;24536;45.488;12.238;2023-07-02T08:41:20;8.60;;;5.13;;
38787;SDS011;24536;45.488;12.238;2023-07-02T08:43:48;6.68;;;4.50;;
38787;SDS011;24536;45.488;12.238;2023-07-02T08:46:15;6.78;;;4.70;;
38787;SDS011;24536;45.488;12.238;2023-07-02T08:48:41;5.47;;;4.30;;
38787;SDS011;24536;45.488;12.238;2023-07-02T08:51:07;5.15;;;4.10;;
38787;SDS011;24536;45.488;12.238;2023-07-02T08:53:33;8.45;;;5.25;;
38787;SDS011;24536;45.488;12.238;2023-07-02T08:55:59;7.30;;;4.63;;
38787;SDS011;24536;45.488;12.238;2023-07-02T08:58:27;8.63;;;4.10;;
38787;SDS011;24536;45.488;12.238;2023-07-02T09:03:32;7.13;;;4.67;;
38787;SDS011;24536;45.488;12.238;2023-07-02T09:05:58;5.63;;;4.47;;
38787;SDS011;24536;45.488;12.238;2023-07-02T09:08:26;5.85;;;4.10;;
38787;SDS011;24536;45.488;12.238;2023-07-02T09:10:53;5.18;;;3.60;;
38787;SDS011;24536;45.488;12.238;2023-07-02T09:13:29;5.95;;;4.07;;
38787;SDS011;24536;45.488;12.238;2023-07-02T09:15:55;6.82;;;4.40;;
38787;SDS011;24536;45.488;12.238;2023-07-02T09:18:21;7.07;;;4.63;;
38787;SDS011;24536;45.488;12.238;2023-07-02T09:20:51;6.80;;;4.57;;
38787;SDS011;24536;45.488;12.238;2023-07-02T09:23:19;5.55;;;4.55;;
38787;SDS011;24536;45.488;12.238;2023-07-02T09:25:46;4.72;;;3.72;;
38787;SDS011;24536;45.488;12.238;2023-07-02T09:28:15;4.65;;;3.30;;
38787;SDS011;24536;45.488;12.238;2023-07-02T09:30:55;5.85;;;4.00;;
38787;SDS011;24536;45.488;12.238;2023-07-02T09:33:25;5.93;;;4.07;;
38787;SDS011;24536;45.488;12.238;2023-07-02T09:35:52;4.75;;;3.60;;
38787;SDS011;24536;45.488;12.238;2023-07-02T09:38:19;6.10;;;3.75;;
38787;SDS011;24536;45.488;12.238;2023-07-02T09:40:46;4.65;;;3.40;;
38787;SDS011;24536;45.488;12.238;2023-07-02T09:43:15;6.30;;;3.60;;
38787;SDS011;24536;45.488;12.238;2023-07-02T09:45:45;4.15;;;3.50;;
38787;SDS011;24536;45.488;12.238;2023-07-02T09:48:15;6.05;;;4.35;;
38787;SDS011;24536;45.488;12.238;2023-07-02T09:53:12;6.10;;;4.07;;
38787;SDS011;24536;45.488;12.238;2023-07-02T09:55:38;5.47;;;4.10;;
38787;SDS011;24536;45.488;12.238;2023-07-02T09:58:04;6.03;;;4.13;;
38787;SDS011;24536;45.488;12.238;2023-07-02T10:00:31;5.43;;;4.22;;
38787;SDS011;24536;45.488;12.238;2023-07-02T10:02:57;5.97;;;3.88;;
38787;SDS011;24536;45.488;12.238;2023-07-02T10:07:52;5.65;;;3.97;;
38787;SDS011;24536;45.488;12.238;2023-07-02T10:12:56;7.28;;;4.82;;
38787;SDS011;24536;45.488;12.238;2023-07-02T10:15:26;5.75;;;4.00;;
38787;SDS011;24536;45.488;12.238;2023-07-02T10:17:56;6.68;;;4.00;;
38787;SDS011;24536;45.488;12.238;2023-07-02T10:20:33;5.18;;;3.88;;
38787;SDS011;24536;45.488;12.238;2023-07-02T10:25:31;6.25;;;3.90;;
38787;SDS011;24536;45.488;12.238;2023-07-02T10:27:59;6.20;;;5.30;;
38787;SDS011;24536;45.488;12.238;2023-07-02T10:30:47;5.70;;;4.28;;
38787;SDS011;24536;45.488;12.238;2023-07-02T10:33:13;7.32;;;4.20;;
38787;SDS011;24536;45.488;12.238;2023-07-02T10:35:41;6.78;;;4.40;;
38787;SDS011;24536;45.488;12.238;2023-07-02T10:40:43;7.18;;;5.03;;
38787;SDS011;24536;45.488;12.238;2023-07-02T10:43:09;5.55;;;4.72;;
38787;SDS011;24536;45.488;12.238;2023-07-02T10:45:35;5.88;;;4.55;;
38787;SDS011;24536;45.488;12.238;2023-07-02T10:48:02;5.85;;;4.45;;
38787;SDS011;24536;45.488;12.238;2023-07-02T10:50:29;7.75;;;4.65;;
38787;SDS011;24536;45.488;12.238;2023-07-02T10:52:56;6.60;;;4.72;;
38787;SDS011;24536;45.488;12.238;2023-07-02T10:55:23;5.90;;;4.88;;
38787;SDS011;24536;45.488;12.238;2023-07-02T10:57:50;5.53;;;4.32;;
38787;SDS011;24536;45.488;12.238;2023-07-02T11:00:27;5.35;;;4.40;;
38787;SDS011;24536;45.488;12.238;2023-07-02T11:02:54;5.00;;;4.38;;
38787;SDS011;24536;45.488;12.238;2023-07-02T11:05:19;6.68;;;4.80;;
38787;SDS011;24536;45.488;12.238;2023-07-02T11:07:45;6.82;;;4.55;;
38787;SDS011;24536;45.488;12.238;2023-07-02T11:10:17;6.47;;;4.45;;
38787;SDS011;24536;45.488;12.238;2023-07-02T11:12:43;6.75;;;4.40;;
38787;SDS011;24536;45.488;12.238;2023-07-02T11:15:10;5.45;;;4.00;;
38787;SDS011;24536;45.488;12.238;2023-07-02T11:17:37;5.85;;;4.50;;
38787;SDS011;24536;45.488;12.238;2023-07-02T11:20:06;6.70;;;4.55;;
38787;SDS011;24536;45.488;12.238;2023-07-02T11:22:34;5.88;;;4.40;;
38787;SDS011;24536;45.488;12.238;2023-07-02T11:25:11;5.35;;;4.32;;
38787;SDS011;24536;45.488;12.238;2023-07-02T11:27:44;5.20;;;4.70;;
38787;SDS011;24536;45.488;12.238;2023-07-02T11:30:10;5.88;;;4.20;;
38787;SDS011;24536;45.488;12.238;2023-07-02T11:35:34;6.22;;;4.25;;
38787;SDS011;24536;45.488;12.238;2023-07-02T11:38:01;5.13;;;4.00;;
38787;SDS011;24536;45.488;12.238;2023-07-02T11:40:26;5.22;;;4.55;;
38787;SDS011;24536;45.488;12.238;2023-07-02T11:42:52;6.13;;;4.30;;
38787;SDS011;24536;45.488;12.238;2023-07-02T11:45:18;6.63;;;4.72;;
38787;SDS011;24536;45.488;12.238;2023-07-02T11:47:43;4.47;;;3.67;;
38787;SDS011;24536;45.488;12.238;2023-07-02T11:50:09;7.13;;;4.35;;
38787;SDS011;24536;45.488;12.238;2023-07-02T11:52:35;7.90;;;4.18;;
38787;SDS011;24536;45.488;12.238;2023-07-02T11:55:01;6.32;;;4.43;;
38787;SDS011;24536;45.488;12.238;2023-07-02T11:57:27;5.72;;;4.50;;
38787;SDS011;24536;45.488;12.238;2023-07-02T11:59:52;4.93;;;4.10;;
38787;SDS011;24536;45.488;12.238;2023-07-02T12:02:18;5.78;;;4.22;;
38787;SDS011;24536;45.488;12.238;2023-07-02T12:04:44;5.78;;;4.05;;
38787;SDS011;24536;45.488;12.238;2023-07-02T12:07:10;3.85;;;3.45;;
38787;SDS011;24536;45.488;12.238;2023-07-02T12:09:38;4.65;;;3.83;;
38787;SDS011;24536;45.488;12.238;2023-07-02T12:12:04;5.95;;;4.15;;
38787;SDS011;24536;45.488;12.238;2023-07-02T12:14:30;4.65;;;4.18;;
38787;SDS011;24536;45.488;12.238;2023-07-02T12:16:56;7.05;;;3.90;;
38787;SDS011;24536;45.488;12.238;2023-07-02T12:19:22;7.07;;;4.40;;
38787;SDS011;24536;45.488;12.238;2023-07-02T12:21:47;4.72;;;4.05;;
38787;SDS011;24536;45.488;12.238;2023-07-02T12:24:13;4.88;;;3.75;;
38787;SDS011;24536;45.488;12.238;2023-07-02T12:26:39;5.47;;;3.63;;
38787;SDS011;24536;45.488;12.238;2023-07-02T12:29:06;5.88;;;3.83;;
38787;SDS011;24536;45.488;12.238;2023-07-02T12:31:31;6.43;;;3.88;;
38787;SDS011;24536;45.488;12.238;2023-07-02T12:33:57;5.30;;;3.65;;
38787;SDS011;24536;45.488;12.238;2023-07-02T12:36:23;5.38;;;3.80;;
38787;SDS011;24536;45.488;12.238;2023-07-02T12:38:49;4.38;;;3.83;;
38787;SDS011;24536;45.488;12.238;2023-07-02T12:41:14;7.90;;;3.42;;
38787;SDS011;24536;45.488;12.238;2023-07-02T12:43:40;4.45;;;3.72;;
38787;SDS011;24536;45.488;12.238;2023-07-02T12:46:06;6.63;;;3.65;;
38787;SDS011;24536;45.488;12.238;2023-07-02T12:48:32;8.38;;;3.67;;
38787;SDS011;24536;45.488;12.238;2023-07-02T12:50:59;4.72;;;4.10;;
38787;SDS011;24536;45.488;12.238;2023-07-02T12:53:25;4.70;;;3.97;;
38787;SDS011;24536;45.488;12.238;2023-07-02T12:55:52;4.65;;;3.53;;
38787;SDS011;24536;45.488;12.238;2023-07-02T12:58:18;4.82;;;3.65;;
38787;SDS011;24536;45.488;12.238;2023-07-02T13:00:44;4.55;;;4.15;;
38787;SDS011;24536;45.488;12.238;2023-07-02T13:03:11;5.75;;;3.50;;
38787;SDS011;24536;45.488;12.238;2023-07-02T13:05:37;10.32;;;3.85;;
38787;SDS011;24536;45.488;12.238;2023-07-02T13:08:03;4.22;;;3.58;;
38787;SDS011;24536;45.488;12.238;2023-07-02T13:10:29;7.22;;;4.63;;
38787;SDS011;24536;45.488;12.238;2023-07-02T13:12:55;6.63;;;4.47;;
38787;SDS011;24536;45.488;12.238;2023-07-02T13:15:21;7.97;;;4.60;;
38787;SDS011;24536;45.488;12.238;2023-07-02T13:17:47;5.63;;;4.40;;
38787;SDS011;24536;45.488;12.238;2023-07-02T13:20:13;5.18;;;3.85;;
38787;SDS011;24536;45.488;12.238;2023-07-02T13:22:39;4.78;;;3.78;;
38787;SDS011;24536;45.488;12.238;2023-07-02T13:25:05;6.75;;;4.38;;
38787;SDS011;24536;45.488;12.238;2023-07-02T13:27:31;10.40;;;4.43;;
38787;SDS011;24536;45.488;12.238;2023-07-02T13:29:57;4.55;;;4.00;;
38787;SDS011;24536;45.488;12.238;2023-07-02T13:32:23;5.40;;;4.40;;
38787;SDS011;24536;45.488;12.238;2023-07-02T13:34:49;5.07;;;3.67;;
38787;SDS011;24536;45.488;12.238;2023-07-02T13:37:15;5.57;;;3.58;;
38787;SDS011;24536;45.488;12.238;2023-07-02T13:39:44;5.05;;;4.28;;
38787;SDS011;24536;45.488;12.238;2023-07-02T13:42:14;6.10;;;4.07;;
38787;SDS011;24536;45.488;12.238;2023-07-02T13:44:40;4.78;;;3.85;;
38787;SDS011;24536;45.488;12.238;2023-07-02T13:47:06;4.78;;;4.03;;
38787;SDS011;24536;45.488;12.238;2023-07-02T13:49:32;5.35;;;3.85;;
38787;SDS011;24536;45.488;12.238;2023-07-02T13:51:58;4.47;;;3.60;;
38787;SDS011;24536;45.488;12.238;2023-07-02T13:54:24;5.15;;;4.00;;
38787;SDS011;24536;45.488;12.238;2023-07-02T13:56:51;4.50;;;3.53;;
38787;SDS011;24536;45.488;12.238;2023-07-02T13:59:17;4.65;;;3.70;;
38787;SDS011;24536;45.488;12.238;2023-07-02T14:01:44;9.07;;;4.97;;
38787;SDS011;24536;45.488;12.238;2023-07-02T14:04:10;6.68;;;4.78;;
38787;SDS011;24536;45.488;12.238;2023-07-02T14:06:36;6.15;;;4.60;;
38787;SDS011;24536;45.488;12.238;2023-07-02T14:09:03;17.92;;;8.07;;
38787;SDS011;24536;45.488;12.238;2023-07-02T14:11:29;11.45;;;7.47;;
38787;SDS011;24536;45.488;12.238;2023-07-02T14:13:56;12.15;;;9.98;;
38787;SDS011;24536;45.488;12.238;2023-07-02T14:16:22;14.98;;;10.13;;
38787;SDS011;24536;45.488;12.238;2023-07-02T14:18:49;15.32;;;12.82;;
38787;SDS011;24536;45.488;12.238;2023-07-02T14:21:15;10.82;;;7.55;;
38787;SDS011;24536;45.488;12.238;2023-07-02T14:23:41;5.90;;;4.13;;
38787;SDS011;24536;45.488;12.238;2023-07-02T14:26:06;4.20;;;3.80;;
38787;SDS011;24536;45.488;12.238;2023-07-02T14:28:33;4.22;;;3.75;;
38787;SDS011;24536;45.488;12.238;2023-07-02T14:30:59;5.25;;;4.25;;
38787;SDS011;24536;45.488;12.238;2023-07-02T14:33:27;4.65;;;3.47;;
38787;SDS011;24536;45.488;12.238;2023-07-02T14:35:53;4.30;;;3.38;;
38787;SDS011;24536;45.488;12.238;2023-07-02T14:38:19;4.63;;;3.40;;
38787;SDS011;24536;45.488;12.238;2023-07-02T14:40:46;4.30;;;3.15;;
38787;SDS011;24536;45.488;12.238;2023-07-02T14:43:13;4.40;;;3.38;;
38787;SDS011;24536;45.488;12.238;2023-07-02T14:45:48;5.65;;;3.85;;
38787;SDS011;24536;45.488;12.238;2023-07-02T14:48:19;4.47;;;3.47;;
38787;SDS011;24536;45.488;12.238;2023-07-02T14:50:47;4.43;;;3.65;;
38787;SDS011;24536;45.488;12.238;2023-07-02T14:53:15;5.57;;;3.45;;